sensor_id;sensor_type;location;lat;lon;timestamp;P1;durP1;ratioP1;P2;durP2;ratioP2
6249;SDS011;3158;52.148;11.568;2023-04-15T00:01:56;2.40;;;2.30;;
6249;SDS011;3158;52.148;11.568;2023-04-15T00:06:58;2.17;;;2.08;;
6249;SDS011;3158;52.148;11.568;2023-04-15T00:12:00;1.88;;;1.77;;
6249;SDS011;3158;52.148;11.568;2023-04-15T00:17:01;2.05;;;1.85;;
6249;SDS011;3158;52.148;11.568;2023-04-15T00:22:02;2.63;;;2.28;;
6249;SDS011;3158;52.148;11.568;2023-04-15T00:27:03;2.45;;;2.22;;
6249;SDS011;3158;52.148;11.568;2023-04-15T00:32:05;3.10;;;2.90;;
6249;SDS011;3158;52.148;11.568;2023-04-15T00:37:06;4.10;;;3.70;;
6249;SDS011;3158;52.148;11.568;2023-04-15T00:42:07;3.38;;;2.80;;
6249;SDS011;3158;52.148;11.568;2023-04-15T00:47:08;3.40;;;2.50;;
6249;SDS011;3158;52.148;11.568;2023-04-15T00:52:10;3.63;;;2.63;;
6249;SDS011;3158;52.148;11.568;2023-04-15T00:57:12;2.45;;;2.22;;
6249;SDS011;3158;52.148;11.568;2023-04-15T01:02:13;2.42;;;2.22;;
6249;SDS011;3158;52.148;11.568;2023-04-15T01:07:15;2.13;;;2.03;;
6249;SDS011;3158;52.148;11.568;2023-04-15T01:12:16;2.75;;;2.58;;
6249;SDS011;3158;52.148;11.568;2023-04-15T01:17:17;3.58;;;3.28;;
6249;SDS011;3158;52.148;11.568;2023-04-15T01:22:19;3.15;;;2.88;;
6249;SDS011;3158;52.148;11.568;2023-04-15T01:27:21;5.60;;;4.05;;
6249;SDS011;3158;52.148;11.568;2023-04-15T01:32:22;5.05;;;4.25;;
6249;SDS011;3158;52.148;11.568;2023-04-15T01:37:25;5.47;;;4.97;;
6249;SDS011;3158;52.148;11.568;2023-04-15T01:42:26;6.72;;;4.45;;
6249;SDS011;3158;52.148;11.568;2023-04-15T01:47:27;7.80;;;4.40;;
6249;SDS011;3158;52.148;11.568;2023-04-15T01:52:28;7.20;;;6.10;;
6249;SDS011;3158;52.148;11.568;2023-04-15T01:57:30;4.95;;;4.45;;
6249;SDS011;3158;52.148;11.568;2023-04-15T02:02:32;7.32;;;5.28;;
6249;SDS011;3158;52.148;11.568;2023-04-15T02:07:33;7.57;;;5.43;;
6249;SDS011;3158;52.148;11.568;2023-04-15T02:12:35;9.40;;;5.60;;
6249;SDS011;3158;52.148;11.568;2023-04-15T02:17:36;6.03;;;4.90;;
6249;SDS011;3158;52.148;11.568;2023-04-15T02:22:41;6.60;;;5.40;;
6249;SDS011;3158;52.148;11.568;2023-04-15T02:27:42;5.07;;;4.30;;
6249;SDS011;3158;52.148;11.568;2023-04-15T02:32:43;5.22;;;3.80;;
6249;SDS011;3158;52.148;11.568;2023-04-15T02:37:44;4.55;;;3.28;;
6249;SDS011;3158;52.148;11.568;2023-04-15T02:42:45;3.75;;;2.95;;
6249;SDS011;3158;52.148;11.568;2023-04-15T02:47:49;3.22;;;2.92;;
6249;SDS011;3158;52.148;11.568;2023-04-15T02:52:50;1.95;;;1.85;;
6249;SDS011;3158;52.148;11.568;2023-04-15T02:57:51;2.45;;;2.30;;
6249;SDS011;3158;52.148;11.568;2023-04-15T03:02:57;2.53;;;2.40;;
6249;SDS011;3158;52.148;11.568;2023-04-15T03:07:58;1.90;;;1.80;;
6249;SDS011;3158;52.148;11.568;2023-04-15T03:13:00;1.25;;;1.25;;
6249;SDS011;3158;52.148;11.568;2023-04-15T03:18:01;2.03;;;1.90;;
6249;SDS011;3158;52.148;11.568;2023-04-15T03:23:02;2.80;;;2.22;;
6249;SDS011;3158;52.148;11.568;2023-04-15T03:28:03;1.92;;;1.83;;
6249;SDS011;3158;52.148;11.568;2023-04-15T03:33:06;1.63;;;1.52;;
6249;SDS011;3158;52.148;11.568;2023-04-15T03:38:07;2.00;;;1.30;;
6249;SDS011;3158;52.148;11.568;2023-04-15T03:43:08;1.33;;;1.20;;
6249;SDS011;3158;52.148;11.568;2023-04-15T03:48:10;3.10;;;1.60;;
6249;SDS011;3158;52.148;11.568;2023-04-15T03:53:11;2.05;;;1.95;;
6249;SDS011;3158;52.148;11.568;2023-04-15T03:58:12;2.55;;;2.38;;
6249;SDS011;3158;52.148;11.568;2023-04-15T04:03:13;1.85;;;1.63;;
6249;SDS011;3158;52.148;11.568;2023-04-15T04:08:14;2.10;;;1.98;;
6249;SDS011;3158;52.148;11.568;2023-04-15T04:13:15;1.50;;;1.40;;
6249;SDS011;3158;52.148;11.568;2023-04-15T04:18:16;1.52;;;1.42;;
6249;SDS011;3158;52.148;11.568;2023-04-15T04:23:17;1.00;;;1.00;;
6249;SDS011;3158;52.148;11.568;2023-04-15T04:28:18;11.48;;;6.45;;
6249;SDS011;3158;52.148;11.568;2023-04-15T04:33:19;3.53;;;2.03;;
6249;SDS011;3158;52.148;11.568;2023-04-15T04:38:20;1.45;;;1.35;;
6249;SDS011;3158;52.148;11.568;2023-04-15T04:43:22;1.30;;;1.20;;
6249;SDS011;3158;52.148;11.568;2023-04-15T04:48:23;1.38;;;1.27;;
6249;SDS011;3158;52.148;11.568;2023-04-15T04:53:24;1.55;;;1.38;;
6249;SDS011;3158;52.148;11.568;2023-04-15T04:58:25;1.65;;;1.55;;
6249;SDS011;3158;52.148;11.568;2023-04-15T05:03:26;1.27;;;1.08;;
6249;SDS011;3158;52.148;11.568;2023-04-15T05:08:27;1.95;;;1.48;;
6249;SDS011;3158;52.148;11.568;2023-04-15T05:13:28;1.58;;;1.45;;
6249;SDS011;3158;52.148;11.568;2023-04-15T05:18:30;1.73;;;1.60;;
6249;SDS011;3158;52.148;11.568;2023-04-15T05:23:31;1.33;;;1.30;;
6249;SDS011;3158;52.148;11.568;2023-04-15T05:28:32;1.98;;;1.77;;
6249;SDS011;3158;52.148;11.568;2023-04-15T05:33:33;2.30;;;2.20;;
6249;SDS011;3158;52.148;11.568;2023-04-15T05:38:35;1.73;;;1.52;;
6249;SDS011;3158;52.148;11.568;2023-04-15T05:43:36;2.03;;;1.83;;
6249;SDS011;3158;52.148;11.568;2023-04-15T05:48:37;2.22;;;2.13;;
6249;SDS011;3158;52.148;11.568;2023-04-15T05:53:38;2.83;;;1.85;;
6249;SDS011;3158;52.148;11.568;2023-04-15T05:58:40;2.38;;;2.28;;
6249;SDS011;3158;52.148;11.568;2023-04-15T06:04:31;2.13;;;2.03;;
6249;SDS011;3158;52.148;11.568;2023-04-15T06:09:33;3.17;;;2.40;;
6249;SDS011;3158;52.148;11.568;2023-04-15T06:14:35;3.25;;;2.47;;
6249;SDS011;3158;52.148;11.568;2023-04-15T06:19:36;3.33;;;2.67;;
6249;SDS011;3158;52.148;11.568;2023-04-15T06:24:37;3.05;;;2.70;;
6249;SDS011;3158;52.148;11.568;2023-04-15T06:29:38;3.08;;;2.80;;
6249;SDS011;3158;52.148;11.568;2023-04-15T06:34:39;3.53;;;2.95;;
6249;SDS011;3158;52.148;11.568;2023-04-15T06:39:41;5.57;;;2.85;;
6249;SDS011;3158;52.148;11.568;2023-04-15T06:44:43;3.15;;;2.72;;
6249;SDS011;3158;52.148;11.568;2023-04-15T06:49:44;3.72;;;3.15;;
6249;SDS011;3158;52.148;11.568;2023-04-15T06:54:45;3.35;;;3.03;;
6249;SDS011;3158;52.148;11.568;2023-04-15T06:59:46;3.92;;;2.95;;
6249;SDS011;3158;52.148;11.568;2023-04-15T07:04:48;4.55;;;3.30;;
6249;SDS011;3158;52.148;11.568;2023-04-15T07:09:49;4.30;;;3.90;;
6249;SDS011;3158;52.148;11.568;2023-04-15T07:14:50;5.00;;;4.20;;
6249;SDS011;3158;52.148;11.568;2023-04-15T07:19:51;5.53;;;4.85;;
6249;SDS011;3158;52.148;11.568;2023-04-15T07:24:52;10.32;;;5.25;;
6249;SDS011;3158;52.148;11.568;2023-04-15T07:29:53;15.20;;;6.47;;
6249;SDS011;3158;52.148;11.568;2023-04-15T07:34:54;14.63;;;6.68;;
6249;SDS011;3158;52.148;11.568;2023-04-15T07:39:55;15.30;;;6.47;;
6249;SDS011;3158;52.148;11.568;2023-04-15T07:44:57;11.85;;;7.95;;
6249;SDS011;3158;52.148;11.568;2023-04-15T07:49:58;15.68;;;7.38;;
6249;SDS011;3158;52.148;11.568;2023-04-15T07:54:59;20.20;;;8.80;;
6249;SDS011;3158;52.148;11.568;2023-04-15T08:00:00;20.05;;;9.98;;
6249;SDS011;3158;52.148;11.568;2023-04-15T08:05:13;26.10;;;10.25;;
6249;SDS011;3158;52.148;11.568;2023-04-15T08:10:14;28.48;;;11.82;;
6249;SDS011;3158;52.148;11.568;2023-04-15T08:15:15;24.30;;;12.07;;
6249;SDS011;3158;52.148;11.568;2023-04-15T08:20:16;26.33;;;12.95;;
6249;SDS011;3158;52.148;11.568;2023-04-15T08:25:18;31.52;;;14.07;;
6249;SDS011;3158;52.148;11.568;2023-04-15T08:30:19;32.47;;;13.95;;
6249;SDS011;3158;52.148;11.568;2023-04-15T08:35:20;32.30;;;15.30;;
6249;SDS011;3158;52.148;11.568;2023-04-15T08:40:21;37.33;;;16.17;;
6249;SDS011;3158;52.148;11.568;2023-04-15T08:45:25;35.85;;;16.35;;
6249;SDS011;3158;52.148;11.568;2023-04-15T08:50:26;37.70;;;17.10;;
6249;SDS011;3158;52.148;11.568;2023-04-15T08:55:29;38.30;;;16.52;;
6249;SDS011;3158;52.148;11.568;2023-04-15T09:00:34;42.97;;;18.67;;
6249;SDS011;3158;52.148;11.568;2023-04-15T09:05:35;35.35;;;17.08;;
6249;SDS011;3158;52.148;11.568;2023-04-15T09:10:37;33.50;;;17.13;;
6249;SDS011;3158;52.148;11.568;2023-04-15T09:15:38;44.58;;;18.23;;
6249;SDS011;3158;52.148;11.568;2023-04-15T09:20:39;36.05;;;16.90;;
6249;SDS011;3158;52.148;11.568;2023-04-15T09:25:41;37.08;;;17.55;;
6249;SDS011;3158;52.148;11.568;2023-04-15T09:30:42;38.47;;;17.83;;
6249;SDS011;3158;52.148;11.568;2023-04-15T09:36:00;31.23;;;16.60;;
6249;SDS011;3158;52.148;11.568;2023-04-15T09:41:01;30.48;;;16.35;;
6249;SDS011;3158;52.148;11.568;2023-04-15T09:46:02;37.40;;;16.50;;
6249;SDS011;3158;52.148;11.568;2023-04-15T09:51:03;27.90;;;15.50;;
6249;SDS011;3158;52.148;11.568;2023-04-15T09:56:04;34.05;;;17.38;;
6249;SDS011;3158;52.148;11.568;2023-04-15T10:01:07;33.10;;;17.30;;
6249;SDS011;3158;52.148;11.568;2023-04-15T10:06:08;27.90;;;16.52;;
6249;SDS011;3158;52.148;11.568;2023-04-15T10:11:10;29.48;;;17.25;;
6249;SDS011;3158;52.148;11.568;2023-04-15T10:16:15;32.28;;;15.57;;
6249;SDS011;3158;52.148;11.568;2023-04-15T10:21:16;28.63;;;15.25;;
6249;SDS011;3158;52.148;11.568;2023-04-15T10:26:18;24.23;;;15.27;;
6249;SDS011;3158;52.148;11.568;2023-04-15T10:31:19;28.05;;;16.20;;
6249;SDS011;3158;52.148;11.568;2023-04-15T10:36:21;32.67;;;15.93;;
6249;SDS011;3158;52.148;11.568;2023-04-15T10:41:23;22.98;;;14.27;;
6249;SDS011;3158;52.148;11.568;2023-04-15T10:46:35;24.63;;;15.40;;
6249;SDS011;3158;52.148;11.568;2023-04-15T10:51:38;24.75;;;14.57;;
6249;SDS011;3158;52.148;11.568;2023-04-15T10:56:44;22.75;;;15.25;;
6249;SDS011;3158;52.148;11.568;2023-04-15T11:01:55;22.98;;;15.00;;
6249;SDS011;3158;52.148;11.568;2023-04-15T11:07:05;24.58;;;15.48;;
6249;SDS011;3158;52.148;11.568;2023-04-15T11:12:06;21.08;;;13.77;;
6249;SDS011;3158;52.148;11.568;2023-04-15T11:17:08;26.05;;;16.27;;
6249;SDS011;3158;52.148;11.568;2023-04-15T11:22:09;22.05;;;14.27;;
6249;SDS011;3158;52.148;11.568;2023-04-15T11:27:19;23.13;;;14.38;;
6249;SDS011;3158;52.148;11.568;2023-04-15T11:32:20;25.35;;;13.98;;
6249;SDS011;3158;52.148;11.568;2023-04-15T11:37:26;23.52;;;16.10;;
6249;SDS011;3158;52.148;11.568;2023-04-15T11:42:28;23.42;;;13.68;;
6249;SDS011;3158;52.148;11.568;2023-04-15T11:47:29;26.08;;;14.95;;
6249;SDS011;3158;52.148;11.568;2023-04-15T11:52:30;22.90;;;13.98;;
6249;SDS011;3158;52.148;11.568;2023-04-15T11:57:31;22.17;;;14.88;;
6249;SDS011;3158;52.148;11.568;2023-04-15T12:02:35;23.05;;;14.90;;
6249;SDS011;3158;52.148;11.568;2023-04-15T12:12:56;21.50;;;14.80;;
6249;SDS011;3158;52.148;11.568;2023-04-15T12:17:58;24.63;;;15.82;;
6249;SDS011;3158;52.148;11.568;2023-04-15T12:23:05;27.15;;;15.63;;
6249;SDS011;3158;52.148;11.568;2023-04-15T12:28:10;22.88;;;14.52;;
6249;SDS011;3158;52.148;11.568;2023-04-15T12:33:11;21.35;;;14.13;;
6249;SDS011;3158;52.148;11.568;2023-04-15T12:38:13;23.42;;;13.35;;
6249;SDS011;3158;52.148;11.568;2023-04-15T12:43:14;20.98;;;13.60;;
6249;SDS011;3158;52.148;11.568;2023-04-15T12:48:15;26.00;;;15.55;;
6249;SDS011;3158;52.148;11.568;2023-04-15T12:53:16;21.98;;;13.55;;
6249;SDS011;3158;52.148;11.568;2023-04-15T12:58:17;18.77;;;12.70;;
6249;SDS011;3158;52.148;11.568;2023-04-15T13:03:18;20.90;;;13.18;;
6249;SDS011;3158;52.148;11.568;2023-04-15T13:08:19;18.30;;;12.70;;
6249;SDS011;3158;52.148;11.568;2023-04-15T13:13:20;20.15;;;13.77;;
6249;SDS011;3158;52.148;11.568;2023-04-15T13:18:21;16.65;;;12.65;;
6249;SDS011;3158;52.148;11.568;2023-04-15T13:23:22;23.05;;;13.75;;
6249;SDS011;3158;52.148;11.568;2023-04-15T13:28:24;17.55;;;12.52;;
6249;SDS011;3158;52.148;11.568;2023-04-15T13:33:25;19.50;;;13.80;;
6249;SDS011;3158;52.148;11.568;2023-04-15T13:38:26;17.77;;;12.27;;
6249;SDS011;3158;52.148;11.568;2023-04-15T13:43:27;18.80;;;12.25;;
6249;SDS011;3158;52.148;11.568;2023-04-15T13:48:28;18.65;;;12.13;;
6249;SDS011;3158;52.148;11.568;2023-04-15T13:53:29;18.90;;;12.88;;
6249;SDS011;3158;52.148;11.568;2023-04-15T13:58:30;17.63;;;12.52;;
6249;SDS011;3158;52.148;11.568;2023-04-15T14:03:31;20.13;;;13.02;;
6249;SDS011;3158;52.148;11.568;2023-04-15T14:08:32;18.23;;;12.63;;
6249;SDS011;3158;52.148;11.568;2023-04-15T14:13:33;18.38;;;12.90;;
6249;SDS011;3158;52.148;11.568;2023-04-15T14:18:34;22.45;;;14.18;;
6249;SDS011;3158;52.148;11.568;2023-04-15T14:23:36;22.42;;;12.95;;
6249;SDS011;3158;52.148;11.568;2023-04-15T14:28:37;18.67;;;12.85;;
6249;SDS011;3158;52.148;11.568;2023-04-15T14:33:38;24.02;;;13.90;;
6249;SDS011;3158;52.148;11.568;2023-04-15T14:38:39;23.77;;;14.90;;
6249;SDS011;3158;52.148;11.568;2023-04-15T14:43:40;20.02;;;12.80;;
6249;SDS011;3158;52.148;11.568;2023-04-15T14:48:41;23.70;;;14.57;;
6249;SDS011;3158;52.148;11.568;2023-04-15T14:53:42;22.25;;;13.02;;
6249;SDS011;3158;52.148;11.568;2023-04-15T14:58:43;29.42;;;14.30;;
6249;SDS011;3158;52.148;11.568;2023-04-15T15:03:44;19.80;;;13.40;;
6249;SDS011;3158;52.148;11.568;2023-04-15T15:08:46;19.77;;;12.93;;
6249;SDS011;3158;52.148;11.568;2023-04-15T15:13:47;20.98;;;13.13;;
6249;SDS011;3158;52.148;11.568;2023-04-15T15:18:48;21.88;;;13.95;;
6249;SDS011;3158;52.148;11.568;2023-04-15T15:23:50;23.30;;;13.45;;
6249;SDS011;3158;52.148;11.568;2023-04-15T15:28:51;22.73;;;14.05;;
6249;SDS011;3158;52.148;11.568;2023-04-15T15:33:52;21.52;;;13.55;;
6249;SDS011;3158;52.148;11.568;2023-04-15T15:38:53;21.73;;;13.25;;
6249;SDS011;3158;52.148;11.568;2023-04-15T15:43:54;20.85;;;13.10;;
6249;SDS011;3158;52.148;11.568;2023-04-15T15:48:56;24.08;;;14.45;;
6249;SDS011;3158;52.148;11.568;2023-04-15T15:53:57;21.60;;;13.30;;
6249;SDS011;3158;52.148;11.568;2023-04-15T15:58:58;20.48;;;13.13;;
6249;SDS011;3158;52.148;11.568;2023-04-15T16:03:59;23.33;;;13.10;;
6249;SDS011;3158;52.148;11.568;2023-04-15T16:09:00;15.85;;;11.15;;
6249;SDS011;3158;52.148;11.568;2023-04-15T16:14:02;18.27;;;12.25;;
6249;SDS011;3158;52.148;11.568;2023-04-15T16:19:03;20.35;;;12.43;;
6249;SDS011;3158;52.148;11.568;2023-04-15T16:24:04;20.10;;;13.10;;
6249;SDS011;3158;52.148;11.568;2023-04-15T16:29:05;17.13;;;12.30;;
6249;SDS011;3158;52.148;11.568;2023-04-15T16:34:06;17.33;;;12.60;;
6249;SDS011;3158;52.148;11.568;2023-04-15T16:39:07;16.48;;;12.30;;
6249;SDS011;3158;52.148;11.568;2023-04-15T16:44:08;17.20;;;12.07;;
6249;SDS011;3158;52.148;11.568;2023-04-15T16:49:09;16.85;;;10.68;;
6249;SDS011;3158;52.148;11.568;2023-04-15T16:54:11;19.63;;;12.00;;
6249;SDS011;3158;52.148;11.568;2023-04-15T16:59:12;17.55;;;11.18;;
6249;SDS011;3158;52.148;11.568;2023-04-15T17:04:13;17.75;;;10.85;;
6249;SDS011;3158;52.148;11.568;2023-04-15T17:09:14;16.73;;;10.65;;
6249;SDS011;3158;52.148;11.568;2023-04-15T17:14:15;14.75;;;10.55;;
6249;SDS011;3158;52.148;11.568;2023-04-15T17:19:16;13.00;;;9.25;;
6249;SDS011;3158;52.148;11.568;2023-04-15T17:24:17;14.55;;;9.52;;
6249;SDS011;3158;52.148;11.568;2023-04-15T17:29:18;14.43;;;10.10;;
6249;SDS011;3158;52.148;11.568;2023-04-15T17:34:19;14.82;;;9.88;;
6249;SDS011;3158;52.148;11.568;2023-04-15T17:39:20;12.45;;;10.05;;
6249;SDS011;3158;52.148;11.568;2023-04-15T17:44:21;19.25;;;10.73;;
6249;SDS011;3158;52.148;11.568;2023-04-15T17:49:22;17.42;;;10.30;;
6249;SDS011;3158;52.148;11.568;2023-04-15T17:54:23;14.45;;;10.13;;
6249;SDS011;3158;52.148;11.568;2023-04-15T17:59:24;13.32;;;10.23;;
6249;SDS011;3158;52.148;11.568;2023-04-15T18:04:25;17.80;;;10.45;;
6249;SDS011;3158;52.148;11.568;2023-04-15T18:09:26;16.45;;;10.45;;
6249;SDS011;3158;52.148;11.568;2023-04-15T18:14:27;16.45;;;10.52;;
6249;SDS011;3158;52.148;11.568;2023-04-15T18:19:29;15.57;;;10.25;;
6249;SDS011;3158;52.148;11.568;2023-04-15T18:24:30;14.93;;;10.30;;
6249;SDS011;3158;52.148;11.568;2023-04-15T18:29:32;12.25;;;9.38;;
6249;SDS011;3158;52.148;11.568;2023-04-15T18:34:34;15.90;;;10.48;;
6249;SDS011;3158;52.148;11.568;2023-04-15T18:39:35;16.40;;;10.98;;
6249;SDS011;3158;52.148;11.568;2023-04-15T18:44:36;13.52;;;10.23;;
6249;SDS011;3158;52.148;11.568;2023-04-15T18:49:37;14.80;;;10.95;;
6249;SDS011;3158;52.148;11.568;2023-04-15T18:54:38;17.42;;;10.95;;
6249;SDS011;3158;52.148;11.568;2023-04-15T18:59:39;20.02;;;11.85;;
6249;SDS011;3158;52.148;11.568;2023-04-15T19:04:40;13.52;;;10.85;;
6249;SDS011;3158;52.148;11.568;2023-04-15T19:09:41;14.10;;;10.73;;
6249;SDS011;3158;52.148;11.568;2023-04-15T19:14:42;22.42;;;10.93;;
6249;SDS011;3158;52.148;11.568;2023-04-15T19:19:44;15.65;;;10.15;;
6249;SDS011;3158;52.148;11.568;2023-04-15T19:24:45;15.68;;;10.43;;
6249;SDS011;3158;52.148;11.568;2023-04-15T19:29:46;15.85;;;11.27;;
6249;SDS011;3158;52.148;11.568;2023-04-15T19:34:47;14.82;;;9.77;;
6249;SDS011;3158;52.148;11.568;2023-04-15T19:39:48;14.45;;;10.00;;
6249;SDS011;3158;52.148;11.568;2023-04-15T19:44:49;12.45;;;9.45;;
6249;SDS011;3158;52.148;11.568;2023-04-15T19:49:50;13.88;;;9.75;;
6249;SDS011;3158;52.148;11.568;2023-04-15T19:54:51;13.35;;;10.52;;
6249;SDS011;3158;52.148;11.568;2023-04-15T19:59:52;16.20;;;9.45;;
6249;SDS011;3158;52.148;11.568;2023-04-15T20:04:54;14.38;;;9.68;;
6249;SDS011;3158;52.148;11.568;2023-04-15T20:09:55;15.48;;;9.73;;
6249;SDS011;3158;52.148;11.568;2023-04-15T20:14:56;14.52;;;10.05;;
6249;SDS011;3158;52.148;11.568;2023-04-15T20:19:57;13.95;;;9.80;;
6249;SDS011;3158;52.148;11.568;2023-04-15T20:24:58;16.33;;;10.45;;
6249;SDS011;3158;52.148;11.568;2023-04-15T20:30:00;17.50;;;10.70;;
6249;SDS011;3158;52.148;11.568;2023-04-15T20:35:02;14.57;;;9.93;;
6249;SDS011;3158;52.148;11.568;2023-04-15T20:40:04;15.43;;;9.68;;
6249;SDS011;3158;52.148;11.568;2023-04-15T20:45:06;15.07;;;10.35;;
6249;SDS011;3158;52.148;11.568;2023-04-15T20:50:07;15.93;;;10.77;;
6249;SDS011;3158;52.148;11.568;2023-04-15T20:55:08;15.68;;;10.15;;
6249;SDS011;3158;52.148;11.568;2023-04-15T21:00:09;18.92;;;11.13;;
6249;SDS011;3158;52.148;11.568;2023-04-15T21:05:11;16.92;;;11.27;;
6249;SDS011;3158;52.148;11.568;2023-04-15T21:10:12;16.88;;;10.82;;
6249;SDS011;3158;52.148;11.568;2023-04-15T21:15:13;15.68;;;10.38;;
6249;SDS011;3158;52.148;11.568;2023-04-15T21:20:14;16.40;;;10.98;;
6249;SDS011;3158;52.148;11.568;2023-04-15T21:25:15;18.25;;;10.98;;
6249;SDS011;3158;52.148;11.568;2023-04-15T21:30:16;18.30;;;10.95;;
6249;SDS011;3158;52.148;11.568;2023-04-15T21:35:17;18.33;;;11.93;;
6249;SDS011;3158;52.148;11.568;2023-04-15T21:40:18;17.85;;;11.50;;
6249;SDS011;3158;52.148;11.568;2023-04-15T21:45:19;27.33;;;12.95;;
6249;SDS011;3158;52.148;11.568;2023-04-15T21:50:20;18.17;;;12.30;;
6249;SDS011;3158;52.148;11.568;2023-04-15T21:55:22;22.67;;;12.27;;
6249;SDS011;3158;52.148;11.568;2023-04-15T22:00:23;18.85;;;11.48;;
6249;SDS011;3158;52.148;11.568;2023-04-15T22:05:24;18.95;;;12.52;;
6249;SDS011;3158;52.148;11.568;2023-04-15T22:10:26;22.23;;;12.00;;
6249;SDS011;3158;52.148;11.568;2023-04-15T22:15:27;18.40;;;11.95;;
6249;SDS011;3158;52.148;11.568;2023-04-15T22:20:28;17.77;;;11.50;;
6249;SDS011;3158;52.148;11.568;2023-04-15T22:25:29;15.95;;;11.05;;
6249;SDS011;3158;52.148;11.568;2023-04-15T22:30:30;16.70;;;11.43;;
6249;SDS011;3158;52.148;11.568;2023-04-15T22:35:31;16.08;;;11.65;;
6249;SDS011;3158;52.148;11.568;2023-04-15T22:40:33;21.40;;;12.50;;
6249;SDS011;3158;52.148;11.568;2023-04-15T22:45:34;19.15;;;12.68;;
6249;SDS011;3158;52.148;11.568;2023-04-15T22:50:35;20.00;;;12.52;;
6249;SDS011;3158;52.148;11.568;2023-04-15T22:55:37;23.10;;;11.68;;
6249;SDS011;3158;52.148;11.568;2023-04-15T23:00:38;18.15;;;11.80;;
6249;SDS011;3158;52.148;11.568;2023-04-15T23:05:39;18.85;;;12.27;;
6249;SDS011;3158;52.148;11.568;2023-04-15T23:10:40;20.63;;;12.65;;
6249;SDS011;3158;52.148;11.568;2023-04-15T23:15:43;20.98;;;12.07;;
6249;SDS011;3158;52.148;11.568;2023-04-15T23:20:44;21.15;;;12.60;;
6249;SDS011;3158;52.148;11.568;2023-04-15T23:25:46;18.65;;;12.38;;
6249;SDS011;3158;52.148;11.568;2023-04-15T23:30:47;24.42;;;13.45;;
6249;SDS011;3158;52.148;11.568;2023-04-15T23:35:48;24.35;;;14.40;;
6249;SDS011;3158;52.148;11.568;2023-04-15T23:40:49;21.75;;;14.13;;
6249;SDS011;3158;52.148;11.568;2023-04-15T23:45:50;24.90;;;13.93;;
6249;SDS011;3158;52.148;11.568;2023-04-15T23:50:51;26.75;;;13.73;;
6249;SDS011;3158;52.148;11.568;2023-04-15T23:55:52;25.17;;;14.27;;
